KTRM/TRM METAR and TAF weather

Enter ICAO airport designator
Station Type Date Time Source
KTRM METAR 2021/09/25 12:52 UTC NOAA

KTRM 251252Z AUTO 22003KT 10SM CLR 20/17 A2990 RMK AO2 SLP129 T02000167


Station Type Date Time Source
KTRM Decoded METAR 2021/09/25 12:52 UTC NOAA

Palm Springs, Jacqueline Cochran Regional Airport, CA, United States (KTRM) 33-37-36N 116-09-34W
Sep 25, 2021 - 08:52 AM EDT / 2021.09.25 1252 UTC
Wind: from the SW (220 degrees) at 3 MPH (3 KT):0
Visibility: 10 mile(s):0
Sky conditions: clear
Temperature: 68.0 F (20.0 C)
Dew Point: 62.1 F (16.7 C)
Relative Humidity: 81%
Pressure (altimeter): 29.9 in. Hg (1012 hPa)
ob: KTRM 251252Z AUTO 22003KT 10SM CLR 20/17 A2990 RMK AO2 SLP129 T02000167
cycle: 13

Station Type Date Time Source
KTRM TAF 2021/09/25 12:27 UTC NOAA

TAF KTRM 251125Z 2512/2612 VRB05KT P6SM VCSH SCT120 BKN250
FM252000 14010KT P6SM SCT120 SCT250
FM260200 VRB05KT P6SM SCT120 BKN250

Example: see airport list